aviador You're here:

EPBY Decoded Metar

BYDGOSZCZ in POLAND
Report Time2017-09-24 22:30:00
UTC Time2017-09-24 23:02:38
Flight Rules vfr VFR
Wind070° at 07 kt
W.Decomp.*RWY 08: 6.8 kt HW 1.8 kt LCW
W.Rank070° ranks 11
Current wind is above 070° avg. (5.8)
Visibility9999 m
Phenomena:N/A
Clouds:N/A
Expected CloudBase > 800 ft AGL from Temp-Dew spread
CeilingNone
Temp13°C (ISA -2)
Dew Point11°C (88% RH)
AAT10.8°C
QNH1024 hPa
Density Alt-144 ft
Elevation233 ft
Report Wrong Elevation
Raw Report
METAR EPBY 242230Z 07007KT CAVOK 13/11 Q1024 =

Extra information for EPBY:More info

Metar Taf Metar & Taf Last 4 Metars F.Rules Stats Wind Profile Meteogram Temp Stats Airport Information Weather charts Add Link Nearby VenuesMetar ALERT Operation Metar Decoded Social comments